Flight Track Log - Related Links

Times and Time Zones

All times are in EDT time to prevent confusion due to time zone crossing. See the N61US flight status page for this flight to view local times or setup timezone preferences in your user account.


Time Position Orientation Groundspeed Altitude Reporting Facility
EDT Latitude Longitude Course Direction KTS MPH feet Rate Location/Type
Mon 04:49:16 PM 41.5278 -93.6281 132° Southeast 96 110 1,700  Level Minneapolis Center
Mon 04:50:13 PM 41.5239 -93.5964 99° East 107 123 2,200 590 Climbing Minneapolis Center
Mon 04:50:17 PM 41.5292 -93.5836 61° Northeast 114 131 2,300 484 Climbing Minneapolis Center
Mon 04:51:15 PM 41.5286 -93.5544 91° East 114 131 2,700 492 Climbing Minneapolis Center
Mon 04:51:18 PM 41.5350 -93.5419 56° Northeast 115 132 2,800 581 Climbing Minneapolis Center
Mon 04:52:17 PM 41.5358 -93.5092 88° East 116 133 3,300 500 Climbing Minneapolis Center
Mon 04:52:18 PM 41.5406 -93.5003 55° Northeast 117 135 3,300 484 Level Minneapolis Center
Mon 04:53:19 PM 41.5483 -93.4583 76° East 117 135 3,800 492 Climbing Minneapolis Center
Mon 04:54:20 PM 41.5622 -93.4164 66° East 125 144 4,300 484 Climbing Minneapolis Center
Mon 04:54:21 PM 41.5575 -93.4267 238° Southwest 121 139 4,300 476 Level Minneapolis Center
Mon 04:55:23 PM 41.5756 -93.3811 62° Northeast 127 146 4,800 435 Climbing Minneapolis Center
Mon 04:56:25 PM 41.5869 -93.3367 71° East 127 146 5,200 469 Climbing Minneapolis Center
Mon 04:56:27 PM 41.5919 -93.3239 62° Northeast 125 144 5,300 581 Climbing Minneapolis Center
Mon 04:57:27 PM 41.5994 -93.2908 73° East 123 142 5,800 492 Climbing Minneapolis Center
Mon 04:57:28 PM 41.6039 -93.2819 56° Northeast 127 146 5,800 393 Level Minneapolis Center
Mon 04:58:28 PM 41.6061 -93.2489 85° East 117 135 6,200 393 Climbing Minneapolis Center
Mon 04:58:29 PM 41.6117 -93.2400 50° Northeast 113 130 6,200 492 Level Minneapolis Center
Mon 04:59:29 PM 41.6150 -93.1983 84° East 113 130 6,700 492 Climbing Minneapolis Center
Mon 04:59:30 PM 41.6100 -93.2075 234° Southwest 114 131 6,700 492 Level Minneapolis Center
Mon 05:00:30 PM 41.6183 -93.1564 78° East 113 130 7,200 581 Climbing Minneapolis Center
Mon 05:00:32 PM 41.6147 -93.1631 234° Southwest 113 130 7,300 500 Climbing Minneapolis Center
Mon 05:01:30 PM 41.6239 -93.1147 76° East 110 127 7,700 387 Climbing Minneapolis Center
Mon 05:01:34 PM 41.6183 -93.1225 226° Southwest 111 128 7,700 492 Level Minneapolis Center
Mon 05:02:31 PM 41.6294 -93.0728 73° East 114 131 8,200 581 Climbing Minneapolis Center
Mon 05:02:36 PM 41.6242 -93.0781 217° Southwest 114 131 8,300 492 Climbing Minneapolis Center
Mon 05:03:32 PM 41.6369 -93.0253 72° East 126 145 8,700 387 Climbing Minneapolis Center
Mon 05:03:38 PM 41.6314 -93.0325 224° Southwest 123 142 8,700 441 Level Minneapolis Center
Mon 05:04:40 PM 41.6392 -92.9875 77° East 125 144 9,200 484 Climbing Minneapolis Center
Mon 05:05:42 PM 41.6450 -92.9394 81° East 122 140 9,700 484 Climbing Minneapolis Center
Mon 05:06:44 PM 41.6503 -92.8942 81° East 124 143 10,200 484 Climbing Minneapolis Center
Mon 05:07:46 PM 41.6558 -92.8492 81° East 125 144 10,700 341 Climbing Minneapolis Center
Mon 05:08:47 PM 41.6633 -92.8008 78° East 129 148 10,900 98 Climbing Minneapolis Center
Mon 05:09:49 PM 41.6697 -92.7472 81° East 140 161 10,900  Level Minneapolis Center
Mon 05:10:51 PM 41.6803 -92.6833 78° East 156 180 10,900 49 Level Minneapolis Center
Mon 05:11:52 PM 41.6875 -92.6222 81° East 159 183 11,000 49 Climbing Chicago Center
Mon 05:12:54 PM 41.6961 -92.5669 78° East 157 181 11,000  Level Chicago Center
Mon 05:13:56 PM 41.7083 -92.5017 76° East 153 176 11,000  Level Chicago Center
Mon 05:14:58 PM 41.7167 -92.4456 79° East 154 177 11,000  Level Chicago Center
Mon 05:16:00 PM 41.7272 -92.3917 75° East 153 176 11,000  Level Chicago Center
Mon 05:17:02 PM 41.7361 -92.3364 78° East 153 176 11,000  Level Chicago Center
Mon 05:18:04 PM 41.7458 -92.2831 76° East 151 174 11,000  Level Chicago Center
Mon 05:19:06 PM 41.7564 -92.2175 78° East 152 175 11,000  Level Chicago Center
Mon 05:20:09 PM 41.7664 -92.1625 76° East 153 176 11,000  Level Chicago Center
Mon 05:21:11 PM 41.7761 -92.1069 77° East 153 176 11,000  Level Chicago Center
Mon 05:22:13 PM 41.7844 -92.0514 79° East 154 177 11,000  Level Chicago Center
Mon 05:23:15 PM 41.7936 -91.9939 78° East 158 182 11,000  Level Chicago Center
Mon 05:24:17 PM 41.8056 -91.9283 76° East 155 178 11,000  Level Chicago Center
Mon 05:25:19 PM 41.8144 -91.8733 78° East 155 178 11,000  Level Chicago Center
Mon 05:26:21 PM 41.8244 -91.8206 76° East 150 173 11,000  Level Chicago Center
Mon 05:27:23 PM 41.8328 -91.7642 79° East 153 176 11,000  Level Chicago Center
Mon 05:28:25 PM 41.8442 -91.6969 77° East 155 178 11,000  Level Chicago Center
Mon 05:29:27 PM 41.8531 -91.6414 78° East 154 177 11,000  Level Chicago Center
Mon 05:30:29 PM 41.8622 -91.5858 77° East 154 177 11,000  Level Chicago Center
Mon 05:31:32 PM 41.8717 -91.5333 76° East 150 173 11,000  Level Chicago Center
Mon 05:32:34 PM 41.8803 -91.4797 78° East 148 170 11,000  Level Chicago Center
Mon 05:33:36 PM 41.8908 -91.4161 77° East 147 169 11,000  Level Chicago Center
Mon 05:34:38 PM 41.8983 -91.3617 79° East 149 171 11,000  Level Chicago Center
Mon 05:35:40 PM 41.9081 -91.3089 76° East 146 168 11,000  Level Chicago Center
Mon 05:36:42 PM 41.9161 -91.2531 79° East 153 176 11,000  Level Chicago Center
Mon 05:37:44 PM 41.9267 -91.1914 77° East 146 168 11,000  Level Chicago Center
Mon 05:38:46 PM 41.9347 -91.1372 79° East 148 170 11,000  Level Chicago Center
Mon 05:39:48 PM 41.9433 -91.0842 78° East 147 169 11,000  Level Chicago Center
Mon 05:40:50 PM 41.9514 -91.0311 78° East 146 168 11,000  Level Chicago Center
Mon 05:41:52 PM 41.9614 -90.9775 76° East 149 171 11,000  Level Chicago Center
Mon 05:42:55 PM 41.9714 -90.9131 78° East 149 171 11,000  Level Chicago Center
Mon 05:43:57 PM 41.9800 -90.8608 77° East 148 170 11,000  Level Chicago Center
Mon 05:44:59 PM 41.9867 -90.8078 80° East 146 168 11,000  Level Chicago Center
Mon 05:46:01 PM 41.9956 -90.7544 77° East 146 168 11,000  Level Chicago Center
Mon 05:47:03 PM 42.0036 -90.6994 79° East 151 174 11,000  Level Chicago Center
Mon 05:48:05 PM 42.0139 -90.6347 78° East 150 173 11,000  Level Chicago Center
Mon 05:49:07 PM 42.0225 -90.5811 78° East 148 170 11,000  Level Chicago Center
Mon 05:50:09 PM 42.0308 -90.5267 78° East 150 173 11,000  Level Chicago Center
Mon 05:51:11 PM 42.0378 -90.4733 80° East 148 170 11,000  Level Chicago Center
Mon 05:52:13 PM 42.0486 -90.4075 77° East 149 171 11,000  Level Chicago Center
Mon 05:53:16 PM 42.0578 -90.3525 77° East 154 177 11,000  Level Chicago Center
Mon 05:54:18 PM 42.0647 -90.2986 80° East 150 173 11,000 48 Level Chicago Center
Mon 05:55:20 PM 42.0728 -90.2447 79° East 148 170 11,100  Climbing Chicago Center
Mon 05:56:22 PM 42.0806 -90.1908 79° East 148 170 11,000 -48 Descending Chicago Center
Mon 05:57:24 PM 42.0914 -90.1253 77° East 150 173 11,000  Level Chicago Center
Mon 05:58:26 PM 42.0997 -90.0719 78° East 147 169 11,000  Level Chicago Center
Mon 05:59:28 PM 42.1083 -90.0164 78° East 152 175 11,000 -145 Level Chicago Center
Mon 06:00:30 PM 42.1164 -89.9586 79° East 158 182 10,700 -387 Descending Chicago Center
Mon 06:01:32 PM 42.1256 -89.8947 79° East 165 190 10,200 -484 Descending Chicago Center
Mon 06:02:34 PM 42.1356 -89.8339 77° East 166 191 9,700 -532 Descending Chicago Center
Mon 06:03:36 PM 42.1456 -89.7597 80° East 167 192 9,100 -528 Descending Chicago Center
Mon 06:04:39 PM 42.1550 -89.7008 78° East 164 189 8,600 -480 Descending Chicago Center
Mon 06:05:41 PM 42.1625 -89.6419 80° East 160 184 8,100 -290 Descending Chicago Center
Mon 06:06:43 PM 42.1708 -89.5847 79° East 157 181 8,000 -48 Descending Chicago Center
Mon 06:07:45 PM 42.1775 -89.5308 81° East 149 171 8,000  Level Chicago Center
Mon 06:08:47 PM 42.1878 -89.4667 78° East 146 168 8,000  Level Chicago Center
Mon 06:09:49 PM 42.1947 -89.4139 80° East 145 167 8,000  Level Chicago Center
Mon 06:10:51 PM 42.2028 -89.3614 78° East 144 166 8,000  Level Chicago Center
Mon 06:11:53 PM 42.2094 -89.3086 80° East 144 166 8,000  Level Chicago Center
Mon 06:12:55 PM 42.2167 -89.2569 79° East 141 162 8,000  Level Chicago Center
Mon 06:13:58 PM 42.2242 -89.2033 79° East 143 165 8,000 -192 Level Chicago Center
Mon 06:15:00 PM 42.2381 -89.1381 74° East 150 173 7,600 -435 Descending Chicago Center
Mon 06:16:02 PM 42.2511 -89.0800 73° East 159 183 7,100 -484 Descending Chicago Center
Mon 06:17:04 PM 42.2639 -89.0261 72° East 154 177 6,600 -435 Descending Chicago Center
Mon 06:18:06 PM 42.2731 -88.9742 77° East 146 168 6,200 -435 Descending Chicago Center
Mon 06:19:08 PM 42.2839 -88.9233 74° East 142 163 5,700 -484 Descending Chicago Center
Mon 06:20:10 PM 42.2967 -88.8683 73° East 148 170 5,200 -339 Descending Chicago Center
Mon 06:21:12 PM 42.2883 -88.8136 102° East 137 158 5,000 -97 Descending Chicago Center
Mon 06:22:14 PM 42.2789 -88.7664 105° East 130 150 5,000 -48 Level Chicago Center
Mon 06:23:16 PM 42.2733 -88.7175 99° East 131 151 4,900 -290 Descending Chicago Center
Mon 06:24:18 PM 42.2644 -88.6681 104° East 133 153 4,400 -528 Descending Chicago Center
Mon 06:25:21 PM 42.2550 -88.6094 102° East 135 155 3,800 -571 Descending Chicago Center
Mon 06:27:00 PM 42.2409 -88.5254 71° East  Level Estimated
Mon 06:34:00 PM 42.2062 -88.3290 124° Southeast  Level FlightAware Approximate
Mon 06:35:00 PM 42.2000 -88.3167 124° Southeast  Level FlightAware Approximate
Mon 06:36:00 PM 42.2068 -88.3230 124° Southeast  Level Estimated
Mon 06:37:00 PM 42.2068 -88.3230 124° Southeast  Level Estimated
Mon 06:38:00 PM 42.2068 -88.3230 124° Southeast  Level Estimated
Mon 06:39:00 PM 42.2068 -88.3230 124° Southeast  Level Estimated
Mon 06:40:00 PM 42.2068 -88.3230 124° Southeast  Level Estimated
Mon 06:41:00 PM 42.2068 -88.3230 124° Southeast  Level Estimated
Mon 06:42:00 PM 42.2068 -88.3230 124° Southeast  Level Estimated

Login

Don't have an account? Register now (free) for customized features, flight alerts, and more!